Time;durP1;ratioP1;P1;durP2;ratioP2;P2;SDS_P1;SDS_P2;PMS_P1;PMS_P2;Temp;Humidity;BMP_temperature;BMP_pressure;BME280_temperature;BME280_humidity;BME280_pressure;Samples;Min_cycle;Max_cycle;Signal;HPM_P1;HPM_P2
2023/01/27 00:00:12;;;;;;;14.45;5.97;;;;;;;-2.77;67.52;100142.91;6129840;23;20136;-85
2023/01/27 00:03:37;;;;;;;12.75;6.13;;;;;;;-3.02;66.61;100095.81;6017615;23;20105;-85
2023/01/27 00:07:02;;;;;;;14.18;6.13;;;;;;;-2.19;66.68;100230.69;6106634;23;20029;-85
2023/01/27 01:07:34;;;;;;;7.95;4.25;;;;;;;-3.08;66.94;100098.03;6222162;23;20659;-85
2023/01/27 01:10:18;;;;;;;7.75;4.43;;;;;;;-3.04;66.94;100133.03;6149976;23;20221;-86
2023/01/27 01:13:10;;;;;;;;;;;;;;;;;;;;;
2023/01/27 01:16:11;;;;;;;8.13;4.38;;;;;;;-2.10;67.21;100317.03;6172105;23;20020;-84
2023/01/27 01:18:59;;;;;;;7.47;4.20;;;;;;;-3.22;67.41;100138.09;6148523;23;20025;-85
2023/01/27 01:21:31;;;;;;;8.20;3.80;;;;;;;-3.43;67.44;100094.56;6143319;23;20017;-84
2023/01/27 01:24:03;;;;;;;7.95;3.80;;;;;;;-3.00;67.22;100151.94;6168677;23;20024;-86
2023/01/27 01:26:59;;;;;;;8.88;4.38;;;;;;;-3.48;67.65;100082.47;6145514;23;20021;-85
2023/01/27 01:29:56;;;;;;;7.55;4.10;;;;;;;-3.36;67.40;100115.31;6201205;23;20088;-84
2023/01/27 01:35:50;;;;;;;7.10;3.95;;;;;;;-3.62;67.62;100088.50;6158674;23;20080;-84
2023/01/27 01:38:26;;;;;;;8.15;3.85;;;;;;;-3.84;67.93;100022.91;6121283;23;20013;-85
2023/01/27 01:41:17;;;;;;;8.15;4.20;;;;;;;-2.25;67.65;100299.25;6194215;23;20491;-86
2023/01/27 01:45:00;;;;;;;8.32;4.28;;;;;;;-2.43;68.23;100289.88;6186067;23;20028;-85
2023/01/27 01:48:54;;;;;;;8.80;4.00;;;;;;;-3.51;67.96;100082.31;6050741;23;20038;-84
2023/01/27 01:51:48;;;;;;;8.10;4.05;;;;;;;-2.96;68.15;100190.34;6054809;23;20040;-85
2023/01/27 01:54:27;;;;;;;7.97;3.85;;;;;;;-3.42;68.12;100114.13;6191247;23;20039;-82
2023/01/27 01:57:09;;;;;;;7.78;4.45;;;;;;;-3.52;68.40;100093.28;6131222;23;20024;-86
2023/01/27 01:59:47;;;;;;;6.70;3.28;;;;;;;-3.69;68.16;100091.50;6181588;23;20020;-87
2023/01/27 02:02:37;;;;;;;9.07;3.47;;;;;;;-3.65;68.61;100071.44;6187256;23;20025;-86
2023/01/27 02:09:41;;;;;;;7.38;3.47;;;;;;;-3.05;68.19;100183.13;6075956;23;20015;-88
2023/01/27 02:12:15;;;;;;;6.30;3.05;;;;;;;-3.16;68.56;100166.38;6055576;23;20015;-84
2023/01/27 02:16:06;;;;;;;7.22;3.10;;;;;;;-2.61;68.98;100300.84;6019119;23;20023;-83
2023/01/27 02:18:40;;;;;;;5.57;2.70;;;;;;;-3.17;68.57;100177.38;6084707;23;20018;-85
2023/01/27 02:21:07;;;;;;;5.38;3.33;;;;;;;-2.98;68.55;100209.78;6100515;23;20018;-85
2023/01/27 02:23:41;;;;;;;6.28;3.15;;;;;;;-2.58;68.68;100264.47;6073942;23;20104;-84
2023/01/27 02:26:20;;;;;;;5.47;3.10;;;;;;;-3.33;68.52;100146.03;6053260;23;20018;-83
2023/01/27 02:29:02;;;;;;;7.05;3.10;;;;;;;-3.54;68.33;100119.44;6076387;23;20380;-85
2023/01/27 02:31:28;;;;;;;6.13;3.20;;;;;;;-3.48;68.72;100129.94;6100326;23;20018;-84
2023/01/27 02:37:25;;;;;;;7.63;3.38;;;;;;;-3.37;69.13;100123.75;6050307;23;20034;-83
2023/01/27 02:39:54;;;;;;;4.85;3.05;;;;;;;-3.41;68.57;100128.59;6072366;23;20115;-84
2023/01/27 02:42:20;;;;;;;5.50;3.08;;;;;;;-2.89;68.59;100215.34;6071744;23;20097;-84
2023/01/27 02:45:54;;;;;;;5.05;2.80;;;;;;;-2.94;68.97;100226.09;6046005;23;20046;-80
2023/01/27 02:48:38;;;;;;;6.05;2.72;;;;;;;-3.39;68.52;100137.19;6071242;23;20018;-83
2023/01/27 02:51:19;;;;;;;5.28;2.75;;;;;;;-2.74;68.88;100266.22;6105249;23;20017;-82
2023/01/27 02:54:29;;;;;;;;;;;;;;;;;;;;;
2023/01/27 02:57:28;;;;;;;5.95;3.08;;;;;;;-2.66;68.67;100297.22;6143144;23;20017;-83
2023/01/27 03:00:34;;;;;;;6.45;3.03;;;;;;;-3.83;69.25;100055.16;6123776;23;20100;-83
2023/01/27 03:03:10;;;;;;;5.75;2.78;;;;;;;-4.27;68.71;99980.84;6132612;23;20032;-82
2023/01/27 03:05:45;;;;;;;8.13;3.30;;;;;;;-3.46;68.26;100128.38;6106987;23;20017;-83
2023/01/27 03:08:18;;;;;;;6.85;2.88;;;;;;;-3.21;68.76;100157.66;6149743;23;20033;-82
2023/01/27 03:11:07;;;;;;;5.50;3.22;;;;;;;-3.55;68.95;100138.03;6121314;23;20024;-81
2023/01/27 03:13:47;;;;;;;4.93;2.75;;;;;;;-3.67;68.66;100113.72;6115519;23;20017;-82
2023/01/27 03:19:00;;;;;;;5.15;2.75;;;;;;;-3.08;69.24;100218.59;6159229;23;20017;-84
2023/01/27 03:21:27;;;;;;;5.55;3.13;;;;;;;-3.81;68.98;100068.84;6107907;23;20021;-85
2023/01/27 03:24:08;;;;;;;5.80;3.20;;;;;;;-2.71;69.26;100252.78;6083332;23;20058;-82
2023/01/27 03:27:03;;;;;;;7.38;3.53;;;;;;;-3.21;68.78;100165.28;6104848;23;20514;-82
2023/01/27 03:29:56;;;;;;;5.30;2.60;;;;;;;-3.72;68.85;100094.78;6107615;23;20017;-84
2023/01/27 03:32:29;;;;;;;6.22;2.78;;;;;;;-2.66;69.08;100264.09;6107204;23;20498;-83
2023/01/27 03:35:33;;;;;;;4.25;2.65;;;;;;;-3.41;68.65;100157.47;6139087;23;20017;-83
2023/01/27 03:46:34;;;;;;;6.72;3.17;;;;;;;-3.01;68.58;100213.84;6155679;23;20025;-82
2023/01/27 03:49:03;;;;;;;;;;;;;;;-2.74;68.71;100263.66;6133066;23;20351;-83
2023/01/27 03:51:34;;;;;;;6.18;3.00;;;;;;;-3.28;68.80;100179.34;6130516;23;19913;-84
2023/01/27 03:54:01;;;;;;;10.18;3.33;;;;;;;-3.38;68.58;100189.84;6131489;23;20013;-84
2023/01/27 03:57:04;;;;;;;6.45;3.28;;;;;;;-2.79;68.75;100260.03;6132005;23;20024;-80
2023/01/27 04:00:27;;;;;;;5.90;3.10;;;;;;;-4.09;69.00;100055.53;6157278;23;20072;-81
2023/01/27 04:09:12;;;;;;;6.38;3.13;;;;;;;-3.75;68.98;100092.06;6158556;23;20013;-82
2023/01/27 04:12:17;;;;;;;6.82;3.55;;;;;;;-2.66;68.73;100281.03;6132381;23;20367;-81
2023/01/27 04:15:02;;;;;;;6.68;3.08;;;;;;;-4.07;68.28;100045.44;6128316;23;20017;-81
2023/01/27 04:21:55;;;;;;;5.90;2.60;;;;;;;-3.86;69.00;100076.22;6106514;23;20025;-82
2023/01/27 04:25:19;;;;;;;5.55;3.30;;;;;;;-3.34;68.79;100192.63;6111247;23;20025;-80
2023/01/27 04:27:58;;;;;;;7.43;3.33;;;;;;;-2.75;68.55;100300.13;6117503;23;20485;-80
2023/01/27 04:30:46;;;;;;;6.07;3.20;;;;;;;-3.38;68.95;100192.41;6132376;23;20013;-82
2023/01/27 04:33:52;;;;;;;6.47;3.00;;;;;;;-3.59;68.85;100143.75;6084117;23;20100;-81
2023/01/27 04:37:19;;;;;;;5.97;3.17;;;;;;;-3.23;68.69;100212.72;6113034;23;20037;-81
2023/01/27 04:43:57;;;;;;;6.85;2.95;;;;;;;-4.16;68.77;100039.88;6117191;23;20467;-82
2023/01/27 04:47:28;;;;;;;;;;;;;;;;;;;;;
2023/01/27 04:50:16;;;;;;;5.85;3.28;;;;;;;-2.60;68.93;100306.84;6068126;23;20025;-82
2023/01/27 04:53:39;;;;;;;5.82;2.97;;;;;;;-2.57;68.98;100317.19;5956657;23;20022;-82
2023/01/27 04:57:11;;;;;;;6.40;2.95;;;;;;;-3.80;68.70;100103.66;6122384;23;20017;-82
2023/01/27 05:00:42;;;;;;;5.13;2.90;;;;;;;-2.85;68.91;100276.63;6117998;23;20028;-81
2023/01/27 05:03:36;;;;;;;7.82;3.00;;;;;;;-3.67;68.71;100113.72;6127761;23;20021;-83
2023/01/27 05:06:20;;;;;;;6.53;3.42;;;;;;;-2.45;68.94;100299.97;6093914;23;20021;-81
2023/01/27 05:09:19;;;;;;;;;;;;;;;;;;;;;
2023/01/27 05:12:51;;;;;;;4.95;2.90;;;;;;;-2.42;68.96;100304.34;6155609;23;20025;-81
2023/01/27 05:16:16;;;;;;;5.45;3.22;;;;;;;-3.20;69.00;100200.16;6109816;23;20022;-82
2023/01/27 05:19:06;;;;;;;3.97;2.60;;;;;;;-3.43;68.59;100123.44;6148596;23;20012;-82
2023/01/27 05:21:45;;;;;;;5.00;2.80;;;;;;;-2.35;68.42;100310.66;6134412;23;20027;-83
2023/01/27 05:24:37;;;;;;;5.13;3.17;;;;;;;-3.29;68.69;100143.66;6141051;23;20068;-83
2023/01/27 05:27:29;;;;;;;;;;;;;;;;;;;;;
2023/01/27 05:30:38;;;;;;;6.38;3.20;;;;;;;-2.39;68.45;100314.72;6161905;23;20024;-82
2023/01/27 05:33:28;;;;;;;5.43;2.97;;;;;;;-3.37;67.85;100174.66;6105823;23;20017;-80
2023/01/27 05:36:40;;;;;;;5.30;2.97;;;;;;;-2.80;68.49;100231.91;6072091;23;20018;-83
2023/01/27 05:39:58;;;;;;;;;;;;;;;;;;;;;
2023/01/27 05:43:06;;;;;;;5.45;3.30;;;;;;;-3.13;68.42;100184.38;6030862;23;20040;-81
2023/01/27 05:46:28;;;;;;;5.97;3.60;;;;;;;-2.95;68.42;100214.13;6048617;23;20078;-81
2023/01/27 05:50:20;;;;;;;5.95;3.00;;;;;;;-2.23;68.36;100329.13;6055746;23;20018;-81
2023/01/27 05:53:09;;;;;;;6.05;3.22;;;;;;;-3.52;68.24;100107.69;5915079;24;20025;-82
2023/01/27 05:56:31;;;;;;;;;;;;;;;;;;;;;
2023/01/27 06:00:12;;;;;;;5.88;3.00;;;;;;;-2.21;68.42;100347.06;6048512;23;20019;-82
2023/01/27 06:03:55;;;;;;;5.80;2.78;;;;;;;-2.19;68.53;100350.56;6056818;23;20023;-82
2023/01/27 06:07:06;;;;;;;6.00;2.85;;;;;;;-2.21;68.15;100352.19;6013630;23;20037;-83
2023/01/27 06:19:08;;;;;;;5.95;2.65;;;;;;;-2.21;68.21;100339.44;6151940;23;20017;-83
2023/01/27 06:23:19;;;;;;;4.97;2.88;;;;;;;-2.51;68.33;100307.31;6099548;23;20431;-83
2023/01/27 06:27:09;;;;;;;;;;;;;;;;;;;;;
2023/01/27 06:30:51;;;;;;;;;;;;;;;;;;;;;
2023/01/27 06:33:52;;;;;;;11.23;4.00;;;;;;;-3.24;67.78;100160.91;6107372;23;20025;-82
2023/01/27 06:37:05;;;;;;;7.78;3.60;;;;;;;-2.62;67.92;100237.94;6067123;23;20342;-82
2023/01/27 06:49:51;;;;;;;8.63;3.90;;;;;;;-2.40;68.03;100258.56;6050479;23;20047;-81
2023/01/27 06:53:43;;;;;;;10.43;3.70;;;;;;;-1.88;67.69;100334.25;5948904;24;20024;-81
2023/01/27 07:06:33;;;;;;;5.95;2.95;;;;;;;-2.81;67.17;100182.63;6029849;23;19921;-83
2023/01/27 07:15:23;;;;;;;6.72;3.15;;;;;;;-1.59;66.96;100339.94;6099506;23;20424;-83
2023/01/27 07:20:32;;;;;;;;;;;;;;;;;;;;;
2023/01/27 07:34:40;;;;;;;;;;;;;;;;;;;;;
2023/01/27 07:46:52;;;;;;;6.38;3.22;;;;;;;-2.68;66.27;100122.09;5866502;24;19926;-83
2023/01/27 13:04:02;;;;;;;;;;;;;;;;;;;;;
2023/01/27 13:12:56;;;;;;;;;;;;;;;;;;;;;
